Time;durP1;ratioP1;P1;durP2;ratioP2;P2;SDS_P1;SDS_P2;PMS_P1;PMS_P2;Temp;Humidity;BMP_temperature;BMP_pressure;BME280_temperature;BME280_humidity;BME280_pressure;Samples;Min_cycle;Max_cycle;Signal;HPM_P1;HPM_P2
2022/12/19 00:01:17;;;;;;;45.33;26.77;;;1.10;99.90;;;;;;5107489;27;20042;-59
2022/12/19 00:03:48;;;;;;;42.53;23.52;;;1.10;99.90;;;;;;5106358;27;20122;-57
2022/12/19 00:06:15;;;;;;;43.15;25.38;;;1.10;99.90;;;;;;5066009;28;20040;-58
2022/12/19 00:08:43;;;;;;;43.10;25.15;;;1.10;99.90;;;;;;5091011;28;20049;-59
2022/12/19 00:11:10;;;;;;;42.30;25.67;;;1.10;99.90;;;;;;5106907;27;20047;-59
2022/12/19 00:13:36;;;;;;;44.30;25.35;;;1.20;99.90;;;;;;5103926;28;20031;-58
2022/12/19 00:16:03;;;;;;;43.78;25.20;;;1.20;99.90;;;;;;5107048;27;20035;-58
2022/12/19 00:18:29;;;;;;;48.28;26.52;;;1.20;99.90;;;;;;5109994;27;20106;-60
2022/12/19 00:21:01;;;;;;;46.42;24.75;;;1.20;99.90;;;;;;5073456;28;20127;-59
2022/12/19 00:23:28;;;;;;;48.15;27.25;;;1.20;99.90;;;;;;5102044;27;20070;-59
2022/12/19 00:25:54;;;;;;;50.00;27.08;;;1.20;99.90;;;;;;5105992;27;20520;-58
2022/12/19 00:28:20;;;;;;;47.55;26.20;;;1.20;99.90;;;;;;5104703;28;20040;-58
2022/12/19 00:30:46;;;;;;;49.45;29.05;;;1.30;99.90;;;;;;5092657;28;20044;-59
2022/12/19 00:33:12;;;;;;;43.97;25.95;;;1.30;99.90;;;;;;5088514;28;20039;-59
2022/12/19 00:35:40;;;;;;;46.80;27.20;;;1.30;99.90;;;;;;5089693;28;20032;-59
2022/12/19 00:38:06;;;;;;;46.20;26.48;;;1.30;99.90;;;;;;5106138;28;20096;-59
2022/12/19 00:40:31;;;;;;;51.00;30.02;;;1.30;99.90;;;;;;5089115;28;20040;-58
2022/12/19 00:42:57;;;;;;;48.22;26.50;;;1.30;99.90;;;;;;5089335;28;20036;-59
2022/12/19 00:45:23;;;;;;;51.85;28.33;;;1.30;99.90;;;;;;5107402;27;20091;-59
2022/12/19 00:47:48;;;;;;;48.20;26.77;;;1.30;99.90;;;;;;5107429;28;20044;-59
2022/12/19 00:50:14;;;;;;;49.72;26.85;;;1.30;99.90;;;;;;5093090;27;20501;-60
2022/12/19 00:52:40;;;;;;;51.22;27.48;;;1.40;99.90;;;;;;5095651;28;20039;-59
2022/12/19 00:55:06;;;;;;;49.75;27.75;;;1.40;99.90;;;;;;5087135;28;20040;-59
2022/12/19 00:57:31;;;;;;;47.30;26.52;;;1.40;99.90;;;;;;5108351;28;20153;-60
2022/12/19 00:59:57;;;;;;;51.95;28.90;;;1.40;99.90;;;;;;5101014;28;20111;-59
2022/12/19 01:02:23;;;;;;;48.65;27.13;;;1.40;99.90;;;;;;5100190;28;20513;-58
2022/12/19 01:04:48;;;;;;;49.65;28.90;;;1.50;99.90;;;;;;5101827;28;20398;-58
2022/12/19 01:07:14;;;;;;;51.80;28.30;;;1.40;99.90;;;;;;5101335;28;20039;-59
2022/12/19 01:09:40;;;;;;;48.70;27.65;;;1.40;99.90;;;;;;5094188;28;20048;-59
2022/12/19 01:14:55;;;;;;;49.10;27.45;;;1.50;99.90;;;;;;5108238;28;20524;-60
2022/12/19 01:17:21;;;;;;;48.70;28.17;;;1.50;99.90;;;;;;5089915;28;20043;-59
2022/12/19 01:19:46;;;;;;;52.22;28.88;;;1.50;99.90;;;;;;5104090;28;20451;-58
2022/12/19 01:22:13;;;;;;;52.22;28.88;;;1.50;99.90;;;;;;5107643;28;20051;-59
2022/12/19 01:24:39;;;;;;;52.63;28.42;;;1.60;99.90;;;;;;5106242;28;20387;-59
2022/12/19 01:27:04;;;;;;;47.50;26.75;;;1.50;99.90;;;;;;5105805;28;20039;-59
2022/12/19 01:29:31;;;;;;;49.15;28.88;;;1.60;99.90;;;;;;5090022;28;20046;-58
2022/12/19 01:31:57;;;;;;;49.85;26.25;;;1.60;99.90;;;;;;5095351;28;20042;-59
2022/12/19 01:34:23;;;;;;;51.35;27.60;;;1.60;99.90;;;;;;5107674;28;20032;-58
2022/12/19 01:36:48;;;;;;;46.30;26.38;;;1.60;99.90;;;;;;5085352;28;20058;-58
2022/12/19 01:39:14;;;;;;;54.25;27.90;;;1.60;99.90;;;;;;5107512;28;20509;-59
2022/12/19 01:41:40;;;;;;;54.88;29.95;;;1.70;99.90;;;;;;5094270;28;20365;-58
2022/12/19 01:44:07;;;;;;;53.90;29.83;;;1.70;99.90;;;;;;5095896;28;20054;-58
2022/12/19 01:46:40;;;;;;;54.75;29.98;;;1.70;99.90;;;;;;5107483;28;20084;-60
2022/12/19 01:49:30;;;;;;;52.65;28.85;;;1.60;99.90;;;;;;5101804;28;20031;-58
2022/12/19 01:52:00;;;;;;;57.58;29.48;;;1.60;99.90;;;;;;5109362;28;20047;-58
2022/12/19 01:54:33;;;;;;;56.47;29.80;;;1.70;99.90;;;;;;5107575;28;20040;-58
2022/12/19 01:56:59;;;;;;;55.58;28.88;;;1.70;99.90;;;;;;5110316;27;20107;-58
2022/12/19 01:59:34;;;;;;;54.45;30.30;;;1.70;99.90;;;;;;5109580;28;20071;-59
2022/12/19 02:02:23;;;;;;;56.53;31.85;;;1.70;99.90;;;;;;5110738;28;20031;-58
2022/12/19 02:04:49;;;;;;;54.13;29.65;;;1.70;99.90;;;;;;5105638;27;20039;-59
2022/12/19 02:07:16;;;;;;;56.20;30.73;;;1.70;99.90;;;;;;5091756;28;20486;-57
2022/12/19 02:09:47;;;;;;;54.33;29.95;;;1.70;99.90;;;;;;5110055;27;20132;-59
2022/12/19 02:12:13;;;;;;;57.25;30.65;;;1.70;99.90;;;;;;5104766;27;20325;-60
2022/12/19 02:14:40;;;;;;;60.10;30.98;;;1.70;99.90;;;;;;5110541;27;20489;-58
2022/12/19 02:17:24;;;;;;;60.00;31.52;;;1.70;99.90;;;;;;5109677;27;20039;-60
2022/12/19 02:20:10;;;;;;;64.22;32.70;;;1.80;99.90;;;;;;5089433;28;20130;-59
2022/12/19 02:23:00;;;;;;;62.13;32.58;;;1.80;99.90;;;;;;5037924;28;20044;-58
2022/12/19 02:25:42;;;;;;;58.78;32.03;;;1.80;99.90;;;;;;5091045;28;20048;-59
2022/12/19 02:28:14;;;;;;;61.15;33.50;;;1.80;99.90;;;;;;5103459;27;20819;-57
2022/12/19 02:31:00;;;;;;;68.72;34.50;;;1.80;99.90;;;;;;5110711;27;20050;-59
2022/12/19 02:33:36;;;;;;;64.72;33.85;;;1.80;99.90;;;;;;5104316;27;20487;-58
2022/12/19 02:36:12;;;;;;;63.72;31.83;;;1.80;99.90;;;;;;5107715;28;20040;-59
2022/12/19 02:38:56;;;;;;;65.82;35.17;;;1.80;99.90;;;;;;5108978;27;20035;-59
2022/12/19 02:41:25;;;;;;;62.05;33.42;;;1.80;99.90;;;;;;5109056;27;20499;-59
2022/12/19 02:43:54;;;;;;;68.75;35.50;;;1.90;99.90;;;;;;5088364;28;20176;-58
2022/12/19 02:46:22;;;;;;;64.05;33.88;;;1.90;99.90;;;;;;5103487;27;20437;-59
2022/12/19 02:48:49;;;;;;;69.32;34.40;;;1.90;99.90;;;;;;5101142;27;20433;-59
2022/12/19 02:51:15;;;;;;;63.63;33.33;;;1.90;99.90;;;;;;5087863;28;20028;-57
2022/12/19 02:53:41;;;;;;;63.17;33.92;;;1.90;99.90;;;;;;5093798;28;20050;-59
2022/12/19 02:56:22;;;;;;;67.63;34.40;;;1.90;99.90;;;;;;5107637;27;20541;-58
2022/12/19 02:59:15;;;;;;;65.18;33.65;;;2.00;99.90;;;;;;5105862;28;20131;-59
2022/12/19 03:01:47;;;;;;;67.25;34.25;;;2.00;99.90;;;;;;5105910;27;20047;-58
2022/12/19 03:04:31;;;;;;;67.18;34.05;;;2.00;99.90;;;;;;5071896;28;20122;-60
2022/12/19 03:07:13;;;;;;;63.65;33.38;;;2.00;99.90;;;;;;5089512;28;20065;-59
2022/12/19 03:09:42;;;;;;;63.50;33.88;;;2.00;99.90;;;;;;5108060;27;20047;-59
2022/12/19 03:12:15;;;;;;;65.93;33.60;;;2.00;99.90;;;;;;5092162;28;20055;-59
2022/12/19 03:14:42;;;;;;;69.30;34.90;;;2.10;99.90;;;;;;5100360;27;20221;-60
2022/12/19 03:17:08;;;;;;;62.95;33.78;;;2.10;99.90;;;;;;5104355;27;20035;-59
2022/12/19 03:19:38;;;;;;;67.82;35.03;;;2.10;99.90;;;;;;5104436;27;20398;-59
2022/12/19 03:22:05;;;;;;;65.20;33.25;;;2.10;99.90;;;;;;5091740;28;20241;-59
2022/12/19 03:24:31;;;;;;;65.15;34.92;;;2.10;99.90;;;;;;5087559;28;20036;-59
2022/12/19 03:27:04;;;;;;;67.32;33.22;;;2.20;99.90;;;;;;5074552;28;20138;-59
2022/12/19 03:29:48;;;;;;;64.07;33.45;;;2.10;99.90;;;;;;5107249;27;20290;-57
2022/12/19 03:32:16;;;;;;;67.22;35.22;;;2.20;99.90;;;;;;5107357;28;20036;-60
2022/12/19 03:34:54;;;;;;;70.60;35.45;;;2.20;99.90;;;;;;5117866;27;20509;-58
2022/12/19 03:37:23;;;;;;;70.70;36.00;;;2.20;99.90;;;;;;5104039;28;20406;-59
2022/12/19 03:39:54;;;;;;;65.93;34.63;;;2.20;99.90;;;;;;5106681;27;20085;-59
2022/12/19 03:45:09;;;;;;;74.15;35.58;;;2.20;99.90;;;;;;5087062;28;20052;-60
2022/12/19 03:47:45;;;;;;;66.45;34.78;;;2.30;99.90;;;;;;5104256;27;20106;-59
2022/12/19 03:50:11;;;;;;;70.63;36.70;;;2.30;99.90;;;;;;5104123;28;20292;-59
2022/12/19 03:53:32;;;;;;;75.50;37.17;;;2.30;99.90;;;;;;5089839;28;20032;-59
2022/12/19 03:56:14;;;;;;;75.85;37.63;;;2.30;99.90;;;;;;5045825;28;20792;-59
2022/12/19 03:58:45;;;;;;;73.10;35.33;;;2.30;99.90;;;;;;5098419;27;20047;-59
2022/12/19 04:01:11;;;;;;;70.00;36.58;;;2.30;99.90;;;;;;5108409;27;20081;-59
2022/12/19 04:03:36;;;;;;;76.72;38.22;;;2.30;99.90;;;;;;5089323;28;20067;-59
2022/12/19 04:06:04;;;;;;;69.63;35.95;;;2.30;99.90;;;;;;5087645;28;20052;-58
2022/12/19 04:08:31;;;;;;;73.35;37.78;;;2.30;99.90;;;;;;5101931;28;20035;-59
2022/12/19 04:11:09;;;;;;;72.88;35.15;;;2.40;99.90;;;;;;5086294;28;20088;-57
2022/12/19 04:13:43;;;;;;;71.15;36.17;;;2.30;99.90;;;;;;5101809;28;20539;-59
2022/12/19 04:16:17;;;;;;;73.22;36.55;;;2.40;99.90;;;;;;5108324;27;20134;-58
2022/12/19 04:18:50;;;;;;;74.20;37.38;;;2.40;99.90;;;;;;5104137;27;20038;-59
2022/12/19 04:21:34;;;;;;;77.78;38.72;;;2.40;99.90;;;;;;5111011;27;20113;-59
2022/12/19 04:24:06;;;;;;;73.70;38.00;;;2.40;99.90;;;;;;5104118;28;20067;-59
2022/12/19 04:26:34;;;;;;;76.30;37.95;;;2.40;99.90;;;;;;5097696;27;20485;-59
2022/12/19 04:29:03;;;;;;;78.38;37.75;;;2.40;99.90;;;;;;5109338;27;20364;-59
2022/12/19 04:31:30;;;;;;;71.55;36.90;;;2.40;99.90;;;;;;5107439;27;20055;-60
2022/12/19 04:33:55;;;;;;;75.18;38.65;;;2.40;99.90;;;;;;5087225;28;20524;-60
2022/12/19 04:36:23;;;;;;;73.53;38.10;;;2.40;99.90;;;;;;5107161;27;20031;-60
2022/12/19 04:38:49;;;;;;;80.60;37.25;;;2.50;99.90;;;;;;5109174;27;20092;-59
2022/12/19 04:41:14;;;;;;;77.28;38.58;;;2.50;99.90;;;;;;5072407;28;20047;-59
2022/12/19 04:43:40;;;;;;;72.97;36.80;;;2.50;99.90;;;;;;5116936;27;20035;-60
2022/12/19 04:46:06;;;;;;;72.88;38.83;;;2.50;99.90;;;;;;5106872;27;20164;-60
2022/12/19 04:48:34;;;;;;;75.82;36.33;;;2.60;99.90;;;;;;5107301;27;20040;-59
2022/12/19 04:51:00;;;;;;;76.90;37.55;;;2.60;99.90;;;;;;5102515;28;20058;-59
2022/12/19 04:53:26;;;;;;;75.20;36.40;;;2.60;99.90;;;;;;5107180;28;20405;-59
2022/12/19 04:56:03;;;;;;;81.25;39.00;;;2.60;99.90;;;;;;5108172;28;20043;-58
2022/12/19 04:58:29;;;;;;;77.65;37.25;;;2.60;99.90;;;;;;5106642;27;20036;-60
2022/12/19 05:01:03;;;;;;;77.85;38.50;;;2.70;99.90;;;;;;5108100;28;20035;-59
2022/12/19 05:03:29;;;;;;;;;;;2.70;99.90;;;;;;5100019;28;20440;-59
2022/12/19 05:06:10;;;;;;;74.60;36.30;;;2.70;99.90;;;;;;5105022;27;19916;-59
2022/12/19 05:08:38;;;;;;;71.82;36.80;;;2.70;99.90;;;;;;5106772;28;20502;-60
2022/12/19 05:11:07;;;;;;;78.57;37.17;;;2.70;99.90;;;;;;5101737;28;20122;-59
2022/12/19 05:13:33;;;;;;;78.68;37.30;;;2.80;99.90;;;;;;5092098;28;20103;-59
2022/12/19 05:16:04;;;;;;;71.45;36.75;;;2.80;99.90;;;;;;5107569;28;20114;-59
2022/12/19 05:18:30;;;;;;;75.90;37.22;;;2.80;99.90;;;;;;5104201;28;20141;-60
2022/12/19 05:20:56;;;;;;;72.32;36.92;;;2.80;99.90;;;;;;5079839;28;20046;-59
2022/12/19 05:23:23;;;;;;;72.88;38.13;;;2.90;99.90;;;;;;5103750;22;20039;-61
2022/12/19 05:25:49;;;;;;;77.55;38.72;;;2.90;99.90;;;;;;5048981;28;20516;-60
2022/12/19 05:28:15;;;;;;;68.03;34.35;;;2.90;99.90;;;;;;5056066;28;20055;-60
2022/12/19 05:30:41;;;;;;;76.07;35.85;;;2.90;99.90;;;;;;5066417;28;20384;-60
2022/12/19 05:33:06;;;;;;;78.45;36.35;;;3.00;99.90;;;;;;5029623;28;20184;-60
2022/12/19 05:35:33;;;;;;;71.43;35.25;;;3.00;99.90;;;;;;5045568;28;20032;-60
2022/12/19 05:37:59;;;;;;;72.22;35.08;;;3.00;99.90;;;;;;5062894;28;20165;-60
2022/12/19 05:40:25;;;;;;;76.43;36.88;;;3.10;99.90;;;;;;5012463;28;20373;-60
2022/12/19 05:42:51;;;;;;;72.45;35.85;;;3.10;99.90;;;;;;5038572;28;20041;-59
2022/12/19 05:45:17;;;;;;;66.30;34.28;;;3.10;99.90;;;;;;5046114;28;20036;-60
2022/12/19 05:47:46;;;;;;;70.28;34.80;;;3.10;99.90;;;;;;5043693;28;20036;-60
2022/12/19 05:50:16;;;;;;;64.25;34.55;;;3.10;99.90;;;;;;5043846;28;20415;-60
2022/12/19 05:52:42;;;;;;;69.82;33.45;;;3.10;99.90;;;;;;5047412;28;20041;-60
2022/12/19 05:55:09;;;;;;;67.65;33.65;;;3.10;99.90;;;;;;5028426;28;20068;-60
2022/12/19 05:57:35;;;;;;;65.72;31.92;;;3.20;99.90;;;;;;5041903;28;20032;-60
2022/12/19 06:00:01;;;;;;;59.88;30.65;;;3.20;99.90;;;;;;5060931;28;20094;-60
2022/12/19 06:02:32;;;;;;;60.85;30.67;;;3.20;99.90;;;;;;5039765;28;20044;-60
2022/12/19 06:04:58;;;;;;;64.13;32.95;;;3.30;99.90;;;;;;5046961;28;20399;-60
2022/12/19 06:07:23;;;;;;;64.05;31.05;;;3.30;99.90;;;;;;5044799;28;20098;-60
2022/12/19 06:09:49;;;;;;;61.05;30.60;;;3.30;99.90;;;;;;5041584;28;20032;-60
2022/12/19 06:12:15;;;;;;;58.70;30.52;;;3.20;99.90;;;;;;5046161;28;20037;-60
2022/12/19 06:14:41;;;;;;;57.95;30.20;;;3.30;99.90;;;;;;5045665;28;20048;-60
2022/12/19 06:17:06;;;;;;;61.20;30.05;;;3.40;99.90;;;;;;5043883;28;20037;-60
2022/12/19 06:19:32;;;;;;;53.97;28.67;;;3.40;99.90;;;;;;5063154;28;20091;-60
2022/12/19 06:21:58;;;;;;;55.00;27.33;;;3.40;99.90;;;;;;5051212;28;20041;-60
2022/12/19 06:24:24;;;;;;;55.72;27.92;;;3.50;99.90;;;;;;5048276;28;20044;-60
2022/12/19 06:26:50;;;;;;;59.75;29.83;;;3.50;99.90;;;;;;5046023;28;20483;-60
2022/12/19 06:29:16;;;;;;;54.20;27.40;;;3.50;99.90;;;;;;5052557;28;20041;-60
2022/12/19 06:31:42;;;;;;;53.20;27.27;;;3.60;99.90;;;;;;5029886;28;20048;-60
2022/12/19 06:34:11;;;;;;;51.13;26.92;;;3.60;99.90;;;;;;5044098;28;20048;-60
2022/12/19 06:36:37;;;;;;;48.53;27.08;;;3.60;99.90;;;;;;5052251;28;20157;-60
2022/12/19 06:39:03;;;;;;;46.92;26.92;;;3.60;99.90;;;;;;5046452;28;20037;-61
2022/12/19 06:44:15;;;;;;;55.50;26.00;;;3.70;99.90;;;;;;5046154;28;20040;-60
2022/12/19 06:46:41;;;;;;;45.40;24.65;;;3.70;99.90;;;;;;5054371;28;20452;-60
2022/12/19 06:49:07;;;;;;;47.33;24.58;;;3.70;99.90;;;;;;5058028;28;20048;-61
2022/12/19 06:51:33;;;;;;;46.20;24.35;;;3.80;99.90;;;;;;5069030;28;20089;-61
2022/12/19 06:53:59;;;;;;;47.58;24.83;;;3.80;99.90;;;;;;5047689;28;20124;-61
2022/12/19 06:56:25;;;;;;;44.00;23.67;;;3.80;99.90;;;;;;5064394;28;20292;-60
2022/12/19 06:58:51;;;;;;;44.03;22.98;;;3.80;99.90;;;;;;5070570;28;20048;-61
2022/12/19 07:01:56;;;;;;;39.03;22.75;;;3.80;99.90;;;;;;5045374;28;20037;-61
2022/12/19 07:04:35;;;;;;;37.05;21.40;;;3.90;99.90;;;;;;5027398;28;20063;-60
2022/12/19 07:07:01;;;;;;;35.53;21.52;;;3.90;99.90;;;;;;5035179;28;20036;-61
2022/12/19 07:09:29;;;;;;;34.05;20.58;;;4.00;99.90;;;;;;5045455;28;20388;-60
2022/12/19 07:11:55;;;;;;;37.28;21.05;;;4.00;99.90;;;;;;5025415;28;20414;-61
2022/12/19 07:14:20;;;;;;;38.58;21.13;;;4.10;99.90;;;;;;5039707;28;20032;-60
2022/12/19 07:16:47;;;;;;;35.90;20.60;;;4.10;99.90;;;;;;5044298;28;20040;-61
2022/12/19 07:19:14;;;;;;;38.55;21.75;;;4.10;99.90;;;;;;5059158;28;20491;-61
2022/12/19 07:21:40;;;;;;;36.28;21.92;;;4.10;99.90;;;;;;5040271;28;20044;-60
2022/12/19 07:24:06;;;;;;;38.72;21.83;;;4.20;99.90;;;;;;5038715;28;20637;-60
2022/12/19 07:26:42;;;;;;;36.65;21.63;;;4.20;99.90;;;;;;5021791;28;20044;-60
2022/12/19 07:29:10;;;;;;;39.30;20.40;;;4.30;99.90;;;;;;5028043;28;20048;-61
2022/12/19 07:31:36;;;;;;;36.28;20.27;;;4.30;99.90;;;;;;5030584;28;20105;-60
2022/12/19 07:34:02;;;;;;;37.53;21.15;;;4.30;99.90;;;;;;5024919;28;20113;-60
2022/12/19 07:36:27;;;;;;;33.97;19.77;;;4.40;99.90;;;;;;5048151;28;20031;-61
2022/12/19 07:38:53;;;;;;;34.67;20.30;;;4.40;99.90;;;;;;5029910;28;20128;-61
2022/12/19 07:41:19;;;;;;;34.63;20.60;;;4.40;99.90;;;;;;5040884;28;20055;-60
2022/12/19 07:43:45;;;;;;;32.97;18.40;;;4.50;99.90;;;;;;5043426;28;20047;-61
2022/12/19 07:46:10;;;;;;;35.22;21.33;;;4.50;99.90;;;;;;5046614;28;20040;-61
2022/12/19 07:48:36;;;;;;;32.03;19.65;;;4.50;99.90;;;;;;5023986;28;20048;-60
2022/12/19 07:51:03;;;;;;;32.60;19.50;;;4.50;99.90;;;;;;5008670;28;20411;-61
2022/12/19 07:53:29;;;;;;;35.00;20.73;;;4.60;99.90;;;;;;5045800;28;20044;-61
2022/12/19 07:55:54;;;;;;;31.27;19.77;;;4.60;99.90;;;;;;5044670;28;20423;-60
2022/12/19 07:58:20;;;;;;;31.98;19.23;;;4.60;99.90;;;;;;5038485;28;20056;-61
2022/12/19 08:00:53;;;;;;;33.28;19.85;;;4.70;99.90;;;;;;5038831;28;20399;-60
2022/12/19 08:03:19;;;;;;;34.60;19.42;;;4.70;99.90;;;;;;5055153;28;20649;-60
2022/12/19 08:05:45;;;;;;;32.85;19.67;;;4.70;99.90;;;;;;5041547;28;20044;-60
2022/12/19 08:08:10;;;;;;;34.95;19.80;;;4.80;99.90;;;;;;5038489;28;20434;-61
2022/12/19 08:10:36;;;;;;;32.15;18.67;;;4.80;99.90;;;;;;5035112;28;20044;-61
2022/12/19 08:13:02;;;;;;;30.30;18.55;;;4.90;99.90;;;;;;5058213;28;20507;-60
2022/12/19 08:15:27;;;;;;;30.95;18.90;;;4.90;99.90;;;;;;5040850;28;20414;-61
2022/12/19 08:17:53;;;;;;;28.52;18.75;;;5.00;99.90;;;;;;5059998;28;20032;-61
2022/12/19 08:20:19;;;;;;;28.80;17.83;;;5.00;99.90;;;;;;5022440;28;20407;-60
2022/12/19 08:22:45;;;;;;;30.30;18.88;;;5.10;99.90;;;;;;5062245;28;20078;-61
2022/12/19 08:25:11;;;;;;;29.88;17.85;;;5.10;99.90;;;;;;5059259;28;20040;-61
2022/12/19 08:27:36;;;;;;;31.30;18.70;;;5.20;99.90;;;;;;5043393;28;20211;-61
2022/12/19 08:30:03;;;;;;;32.35;18.50;;;5.20;99.90;;;;;;5042089;28;20407;-61
2022/12/19 08:32:29;;;;;;;28.63;17.90;;;5.30;99.90;;;;;;5038345;28;20518;-61
2022/12/19 08:34:55;;;;;;;28.90;18.38;;;5.30;99.90;;;;;;5041170;28;20264;-61
2022/12/19 08:37:21;;;;;;;28.50;17.70;;;5.30;99.90;;;;;;5043632;28;20041;-61
2022/12/19 08:39:47;;;;;;;29.80;18.60;;;5.40;99.90;;;;;;5019925;28;20040;-61
2022/12/19 08:42:12;;;;;;;29.42;18.90;;;5.50;99.90;;;;;;5039412;28;20129;-61
2022/12/19 08:44:38;;;;;;;28.55;19.13;;;5.60;99.90;;;;;;5029965;28;20082;-60
2022/12/19 08:47:04;;;;;;;31.60;18.98;;;5.60;99.90;;;;;;5038043;28;20151;-61
2022/12/19 08:49:30;;;;;;;27.02;18.73;;;5.60;99.90;;;;;;5035631;28;20263;-61
2022/12/19 08:51:55;;;;;;;30.25;19.60;;;5.70;99.90;;;;;;5057493;28;20286;-61
2022/12/19 08:54:21;;;;;;;26.17;17.98;;;5.70;99.90;;;;;;5055310;28;20575;-61
2022/12/19 08:56:47;;;;;;;28.40;18.85;;;5.80;99.90;;;;;;5039553;28;20036;-61
2022/12/19 08:59:14;;;;;;;31.42;20.27;;;5.80;99.90;;;;;;5030564;28;20136;-61
2022/12/19 09:01:39;;;;;;;35.15;21.70;;;5.90;99.90;;;;;;5033789;28;20051;-61
2022/12/19 09:04:05;;;;;;;31.52;20.52;;;5.90;99.90;;;;;;5038787;28;20045;-61
2022/12/19 09:06:31;;;;;;;30.45;20.88;;;5.90;99.90;;;;;;5047857;28;20469;-61
2022/12/19 09:09:00;;;;;;;32.22;21.02;;;5.90;99.90;;;;;;5007744;28;20041;-60
2022/12/19 09:11:25;;;;;;;30.58;20.75;;;5.90;99.90;;;;;;4983049;28;20124;-60
2022/12/19 09:13:55;;;;;;;33.08;22.02;;;6.00;99.90;;;;;;5012722;28;20090;-60
2022/12/19 09:16:23;;;;;;;35.30;23.02;;;5.90;99.90;;;;;;5002564;28;20040;-60
2022/12/19 09:18:51;;;;;;;35.50;23.75;;;6.10;99.90;;;;;;5003784;28;20521;-60
2022/12/19 09:21:19;;;;;;;36.15;22.60;;;6.00;99.90;;;;;;5011487;28;20033;-60
2022/12/19 09:23:50;;;;;;;36.53;23.83;;;6.10;99.90;;;;;;5038135;28;20091;-60
2022/12/19 09:26:16;;;;;;;34.65;23.75;;;6.10;99.90;;;;;;5029244;28;20044;-60
2022/12/19 09:28:44;;;;;;;36.50;24.00;;;6.10;99.90;;;;;;5033732;28;20048;-61
2022/12/19 09:31:13;;;;;;;33.67;22.40;;;6.20;99.90;;;;;;5040762;28;20036;-61
2022/12/19 09:33:38;;;;;;;36.45;24.85;;;6.20;99.90;;;;;;5031628;28;20132;-60
2022/12/19 09:36:05;;;;;;;36.72;24.40;;;6.20;99.90;;;;;;5037404;28;20112;-61
2022/12/19 09:38:33;;;;;;;35.20;23.95;;;6.30;99.90;;;;;;5028380;28;20044;-61
2022/12/19 09:41:07;;;;;;;36.13;24.80;;;6.30;99.90;;;;;;5047548;28;20047;-61
2022/12/19 09:43:53;;;;;;;34.72;25.42;;;6.30;99.90;;;;;;5043241;28;20044;-61
2022/12/19 09:46:31;;;;;;;36.53;24.27;;;6.40;99.90;;;;;;5035406;28;20033;-61
2022/12/19 09:49:00;;;;;;;35.58;23.98;;;6.50;99.90;;;;;;5031691;28;20048;-60
2022/12/19 09:51:29;;;;;;;35.17;23.80;;;6.50;99.90;;;;;;5043451;28;20040;-61
2022/12/19 09:53:58;;;;;;;38.03;24.60;;;6.50;99.90;;;;;;5038932;28;20430;-61
2022/12/19 09:56:29;;;;;;;36.08;23.88;;;6.50;99.90;;;;;;5038619;28;20032;-61
2022/12/19 09:59:04;;;;;;;36.53;24.67;;;6.50;99.90;;;;;;5037420;28;20036;-61
2022/12/19 10:01:43;;;;;;;36.47;24.95;;;6.60;99.90;;;;;;5035826;28;20114;-61
2022/12/19 10:04:13;;;;;;;35.30;24.02;;;6.60;99.90;;;;;;5035271;28;20082;-61
2022/12/19 10:06:39;;;;;;;38.28;25.55;;;6.60;99.90;;;;;;5040941;28;20077;-61
2022/12/19 10:09:33;;;;;;;38.25;25.60;;;6.60;99.90;;;;;;5031998;28;20068;-61
2022/12/19 10:12:21;;;;;;;33.22;23.05;;;6.70;99.90;;;;;;5022274;28;20049;-60
2022/12/19 10:14:59;;;;;;;33.38;23.35;;;6.70;99.90;;;;;;5046146;28;20049;-60
2022/12/19 10:17:27;;;;;;;36.97;23.23;;;6.70;99.90;;;;;;5047856;28;20284;-60
2022/12/19 10:20:10;;;;;;;35.63;24.70;;;6.80;99.90;;;;;;5027424;28;20044;-60
2022/12/19 10:22:53;;;;;;;31.98;22.25;;;6.80;99.90;;;;;;5027433;28;20466;-60
2022/12/19 10:25:54;;;;;;;32.40;22.33;;;6.80;99.90;;;;;;5049400;28;20116;-60
2022/12/19 10:28:32;;;;;;;32.45;22.27;;;6.90;99.90;;;;;;5042223;28;20055;-61
2022/12/19 10:31:03;;;;;;;34.88;22.75;;;6.90;99.90;;;;;;5044194;28;20048;-61
2022/12/19 10:33:48;;;;;;;33.08;21.85;;;7.00;99.90;;;;;;5030611;28;21146;-60
2022/12/19 10:36:14;;;;;;;32.00;21.75;;;7.00;99.90;;;;;;5043547;28;20036;-61
2022/12/19 10:39:05;;;;;;;33.40;21.80;;;7.00;99.90;;;;;;5047006;28;20037;-61
2022/12/19 10:41:31;;;;;;;29.35;21.98;;;7.10;99.90;;;;;;5044547;28;20193;-61
2022/12/19 10:44:02;;;;;;;33.20;21.88;;;7.10;99.90;;;;;;5050111;28;20040;-60
2022/12/19 10:46:35;;;;;;;30.33;21.10;;;7.10;99.90;;;;;;5032818;28;20052;-60
2022/12/19 10:49:13;;;;;;;32.72;22.38;;;7.20;99.90;;;;;;5065752;28;20548;-60
2022/12/19 10:51:39;;;;;;;31.63;20.92;;;7.20;99.90;;;;;;5047652;28;20127;-60
2022/12/19 10:54:05;;;;;;;31.05;20.65;;;7.20;99.90;;;;;;5028431;28;20410;-60
2022/12/19 10:56:32;;;;;;;32.70;20.60;;;7.30;99.90;;;;;;5040329;28;20040;-60
2022/12/19 10:58:58;;;;;;;31.42;20.58;;;7.30;99.90;;;;;;5046478;28;20055;-60
2022/12/19 11:01:33;;;;;;;29.23;20.35;;;7.40;99.90;;;;;;5044550;28;20045;-60
2022/12/19 11:04:21;;;;;;;27.70;18.80;;;7.40;99.90;;;;;;5047339;28;20046;-60
2022/12/19 11:07:02;;;;;;;28.13;19.50;;;7.40;99.90;;;;;;5051491;28;20069;-60
2022/12/19 11:09:28;;;;;;;26.38;17.92;;;7.40;99.90;;;;;;5021815;28;20521;-60
2022/12/19 11:12:15;;;;;;;26.95;19.17;;;7.40;99.90;;;;;;5047946;28;20486;-60
2022/12/19 11:15:06;;;;;;;28.05;19.02;;;7.40;99.90;;;;;;5047145;28;20497;-60
2022/12/19 11:17:36;;;;;;;24.67;17.85;;;7.40;99.90;;;;;;5040449;28;20051;-60
2022/12/19 11:20:20;;;;;;;24.15;18.40;;;7.50;99.90;;;;;;5044783;28;20082;-60
2022/12/19 11:22:56;;;;;;;23.73;16.67;;;7.50;99.90;;;;;;5048726;28;20048;-60
2022/12/19 11:25:30;;;;;;;25.40;17.73;;;7.50;99.90;;;;;;5049759;28;20123;-60
2022/12/19 11:27:55;;;;;;;;;;;7.60;99.90;;;;;;5110224;22;20054;-59
2022/12/19 11:30:25;;;;;;;26.50;17.10;;;7.60;99.90;;;;;;5081273;28;19927;-58
2022/12/19 11:33:14;;;;;;;21.88;16.63;;;7.60;99.90;;;;;;5082728;28;20398;-59
2022/12/19 11:35:52;;;;;;;23.88;17.08;;;7.70;99.90;;;;;;5082581;28;20524;-59
2022/12/19 11:38:47;;;;;;;24.35;16.50;;;7.60;99.90;;;;;;5074736;28;20098;-59
2022/12/19 11:41:19;;;;;;;22.90;17.17;;;7.70;99.90;;;;;;5062844;28;20266;-61
2022/12/19 11:43:53;;;;;;;21.52;15.45;;;7.70;99.90;;;;;;5069284;28;20063;-61
2022/12/19 11:46:36;;;;;;;21.17;15.20;;;7.70;99.90;;;;;;5078734;28;20130;-60
2022/12/19 11:49:24;;;;;;;20.92;14.70;;;7.70;99.90;;;;;;5081948;28;20039;-61
2022/12/19 11:52:05;;;;;;;20.83;15.20;;;7.70;99.90;;;;;;5101161;28;20097;-61
2022/12/19 11:54:57;;;;;;;20.75;15.00;;;7.80;99.90;;;;;;5107368;28;20039;-61
2022/12/19 11:57:24;;;;;;;21.05;15.52;;;7.80;99.90;;;;;;5099238;28;20078;-61
2022/12/19 11:59:52;;;;;;;18.60;15.10;;;7.80;99.90;;;;;;5090120;28;20076;-60
2022/12/19 12:02:33;;;;;;;20.80;15.18;;;7.90;99.90;;;;;;5091630;28;20035;-61
2022/12/19 12:05:04;;;;;;;18.45;14.50;;;7.80;99.90;;;;;;5071755;28;20578;-60
2022/12/19 12:07:39;;;;;;;21.00;14.75;;;7.90;99.90;;;;;;5101434;28;20152;-60
2022/12/19 12:10:12;;;;;;;21.35;15.07;;;7.90;99.90;;;;;;5085167;28;20061;-60
2022/12/19 12:12:49;;;;;;;21.02;14.57;;;7.90;99.90;;;;;;5077772;28;20050;-61
2022/12/19 12:15:50;;;;;;;20.42;14.63;;;7.90;99.90;;;;;;5080171;28;20090;-61
2022/12/19 12:18:42;;;;;;;18.13;14.15;;;7.90;99.90;;;;;;5055769;28;20077;-60
2022/12/19 12:21:35;;;;;;;17.58;13.40;;;7.90;99.90;;;;;;5087343;27;20083;-60
2022/12/19 12:24:29;;;;;;;21.75;14.95;;;7.90;99.90;;;;;;5082538;28;20040;-60
2022/12/19 12:27:15;;;;;;;18.23;13.53;;;7.90;99.90;;;;;;5102594;28;20118;-60
2022/12/19 12:30:15;;;;;;;18.90;13.00;;;7.90;99.90;;;;;;5085540;28;20054;-60
2022/12/19 12:32:56;;;;;;;15.60;12.95;;;8.00;99.90;;;;;;5097023;28;20032;-60
2022/12/19 12:35:28;;;;;;;15.23;13.35;;;8.00;99.90;;;;;;5083847;28;20048;-61
2022/12/19 12:38:26;;;;;;;19.20;12.65;;;8.00;99.90;;;;;;5071782;28;20203;-60
2022/12/19 12:41:17;;;;;;;16.58;12.05;;;8.00;99.90;;;;;;5060439;28;20063;-61
2022/12/19 12:43:55;;;;;;;17.50;12.38;;;8.00;99.90;;;;;;5064455;28;20116;-60
2022/12/19 12:46:48;;;;;;;17.20;12.82;;;8.00;99.90;;;;;;5090992;28;20067;-60
2022/12/19 12:50:03;;;;;;;14.60;11.50;;;7.90;99.90;;;;;;5087149;28;20043;-61
2022/12/19 12:52:33;;;;;;;14.38;11.23;;;8.00;99.90;;;;;;5077850;28;20066;-61
2022/12/19 12:55:00;;;;;;;13.68;11.40;;;8.00;99.90;;;;;;5078779;28;20478;-59
2022/12/19 12:57:25;;;;;;;14.27;11.27;;;8.00;99.90;;;;;;5083287;28;20456;-60
2022/12/19 13:00:16;;;;;;;16.67;12.32;;;8.00;99.90;;;;;;5100172;28;20111;-59
2022/12/19 13:02:48;;;;;;;17.80;12.95;;;8.10;99.90;;;;;;5066658;28;20043;-60
2022/12/19 13:05:29;;;;;;;14.98;11.32;;;8.10;99.90;;;;;;5073096;28;20051;-60
2022/12/19 13:07:55;;;;;;;16.92;12.75;;;8.10;99.90;;;;;;5079351;28;20269;-61